Time;durP1;ratioP1;P1;durP2;ratioP2;P2;SDS_P1;SDS_P2;PMS_P1;PMS_P2;Temp;Humidity;BMP_temperature;BMP_pressure;BME280_temperature;BME280_humidity;BME280_pressure;Samples;Min_cycle;Max_cycle;Signal;HPM_P1;HPM_P2
2022/07/18 00:00:43;;;;;;;10.65;6.55;;;;;;;;;;5070282;28;20072;-69
2022/07/18 00:03:09;;;;;;;9.52;6.40;;;;;;;;;;5072520;28;20140;-68
2022/07/18 00:05:36;;;;;;;9.43;6.20;;;;;;;;;;5069138;28;20136;-67
2022/07/18 00:08:02;;;;;;;8.27;5.97;;;;;;;;;;5067162;28;20059;-68
2022/07/18 00:10:28;;;;;;;8.80;5.65;;;;;;;;;;5070473;28;20053;-68
2022/07/18 00:12:55;;;;;;;8.43;6.18;;;;;;;;;;5066438;28;20633;-68
2022/07/18 00:15:21;;;;;;;10.23;6.47;;;;;;;;;;5085681;28;20512;-68
2022/07/18 00:17:47;;;;;;;12.23;5.65;;;;;;;;;;5063220;28;20143;-69
2022/07/18 00:20:14;;;;;;;10.00;6.53;;;;;;;;;;5061748;28;20060;-69
2022/07/18 00:22:40;;;;;;;9.65;5.55;;;;;;;;;;5067712;28;20522;-69
2022/07/18 00:25:07;;;;;;;7.68;6.22;;;;;;;;;;5058297;28;20621;-68
2022/07/18 00:27:33;;;;;;;10.07;5.68;;;;;;;;;;5071177;28;20107;-70
2022/07/18 00:30:00;;;;;;;10.48;6.25;;;;;;;;;;5062278;28;20507;-69
2022/07/18 00:32:26;;;;;;;11.80;6.63;;;;;;;;;;5061618;28;20563;-68
2022/07/18 00:34:52;;;;;;;7.43;5.80;;;;;;;;;;5071750;28;20506;-68
2022/07/18 00:37:19;;;;;;;8.90;7.00;;;;;;;;;;5071104;28;20160;-69
2022/07/18 00:39:45;;;;;;;8.10;6.07;;;;;;;;;;5070649;28;20176;-69
2022/07/18 00:42:11;;;;;;;8.93;6.15;;;;;;;;;;5071316;28;20049;-68
2022/07/18 00:44:38;;;;;;;9.38;6.47;;;;;;;;;;5065999;28;20084;-68
2022/07/18 00:47:04;;;;;;;10.65;6.82;;;;;;;;;;5060909;28;20061;-68
2022/07/18 00:49:31;;;;;;;8.07;6.22;;;;;;;;;;5060232;28;20103;-69
2022/07/18 00:51:57;;;;;;;7.97;6.43;;;;;;;;;;5061878;28;20053;-69
2022/07/18 00:54:23;;;;;;;10.45;6.47;;;;;;;;;;5058281;28;20049;-68
2022/07/18 00:56:50;;;;;;;9.18;6.57;;;;;;;;;;5071722;28;20499;-68
2022/07/18 00:59:17;;;;;;;10.35;6.90;;;;;;;;;;5077351;28;20055;-68
2022/07/18 01:01:46;;;;;;;11.38;7.45;;;;;;;;;;5071155;28;20137;-69
2022/07/18 01:04:12;;;;;;;12.07;7.10;;;;;;;;;;5065800;28;20052;-68
2022/07/18 01:06:39;;;;;;;9.52;6.75;;;;;;;;;;5065211;28;20388;-68
2022/07/18 01:09:06;;;;;;;9.95;7.07;;;;;;;;;;5066141;28;20140;-68
2022/07/18 01:11:33;;;;;;;11.10;7.30;;;;;;;;;;5053632;28;20060;-69
2022/07/18 01:14:01;;;;;;;9.65;7.13;;;;;;;;;;5064663;28;20057;-68
2022/07/18 01:16:27;;;;;;;11.55;7.22;;;;;;;;;;5066126;28;20053;-69
2022/07/18 01:18:54;;;;;;;13.77;7.25;;;;;;;;;;5065478;28;20084;-68
2022/07/18 01:21:21;;;;;;;13.45;7.75;;;;;;;;;;5068504;28;20156;-69
2022/07/18 01:23:48;;;;;;;8.07;6.60;;;;;;;;;;5059132;28;20199;-69
2022/07/18 01:26:15;;;;;;;12.73;7.20;;;;;;;;;;5062164;28;20088;-68
2022/07/18 01:28:43;;;;;;;10.57;7.28;;;;;;;;;;5068927;28;20132;-68
2022/07/18 01:31:10;;;;;;;9.07;6.95;;;;;;;;;;5061312;28;20053;-70
2022/07/18 01:33:36;;;;;;;12.27;7.15;;;;;;;;;;5063500;28;20060;-68
2022/07/18 01:36:04;;;;;;;11.57;6.60;;;;;;;;;;5069919;28;20055;-68
2022/07/18 01:38:31;;;;;;;9.75;6.53;;;;;;;;;;5069021;28;20076;-68
2022/07/18 01:40:58;;;;;;;11.38;7.15;;;;;;;;;;5055799;28;20087;-68
2022/07/18 01:43:25;;;;;;;10.00;7.63;;;;;;;;;;5066056;28;20042;-68
2022/07/18 01:45:52;;;;;;;17.15;7.57;;;;;;;;;;5060414;28;20077;-69
2022/07/18 01:48:19;;;;;;;9.57;7.07;;;;;;;;;;5065212;28;20049;-68
2022/07/18 01:50:45;;;;;;;10.60;6.53;;;;;;;;;;5065006;28;20725;-68
2022/07/18 01:53:12;;;;;;;9.73;7.22;;;;;;;;;;5051710;28;20095;-68
2022/07/18 01:55:38;;;;;;;8.43;6.97;;;;;;;;;;5058627;28;20129;-68
2022/07/18 01:58:05;;;;;;;9.40;7.03;;;;;;;;;;5051206;28;20133;-68
2022/07/18 02:00:31;;;;;;;11.02;6.72;;;;;;;;;;5067291;28;20048;-67
2022/07/18 02:02:58;;;;;;;9.43;6.70;;;;;;;;;;5069024;28;20049;-68
2022/07/18 02:05:24;;;;;;;9.05;6.68;;;;;;;;;;5055158;28;20649;-68
2022/07/18 02:07:50;;;;;;;10.50;7.18;;;;;;;;;;5053659;28;20526;-69
2022/07/18 02:10:19;;;;;;;10.70;6.80;;;;;;;;;;5060136;28;20063;-69
2022/07/18 02:12:45;;;;;;;9.15;7.07;;;;;;;;;;5056396;28;20061;-69
2022/07/18 02:15:12;;;;;;;8.13;6.68;;;;;;;;;;5054738;28;20148;-68
2022/07/18 02:17:39;;;;;;;11.35;7.45;;;;;;;;;;5055866;28;20145;-67
2022/07/18 02:20:06;;;;;;;8.93;7.30;;;;;;;;;;5066960;28;20148;-67
2022/07/18 02:22:33;;;;;;;8.55;6.47;;;;;;;;;;5070673;28;20128;-67
2022/07/18 02:24:59;;;;;;;8.85;7.07;;;;;;;;;;5071907;28;20049;-68
2022/07/18 02:27:25;;;;;;;9.65;7.00;;;;;;;;;;5063605;28;20521;-68
2022/07/18 02:29:52;;;;;;;8.07;6.38;;;;;;;;;;5068448;28;20494;-68
2022/07/18 02:32:18;;;;;;;10.60;7.45;;;;;;;;;;5067712;28;20049;-68
2022/07/18 02:34:44;;;;;;;10.75;7.15;;;;;;;;;;5073561;28;20132;-68
2022/07/18 02:37:11;;;;;;;12.65;6.95;;;;;;;;;;5074009;28;20049;-68
2022/07/18 02:39:37;;;;;;;8.68;6.47;;;;;;;;;;5073258;28;20053;-68
2022/07/18 02:42:04;;;;;;;11.73;7.00;;;;;;;;;;5072474;28;20049;-68
2022/07/18 02:44:30;;;;;;;9.43;6.90;;;;;;;;;;5069719;28;20057;-68
2022/07/18 02:46:57;;;;;;;10.27;6.93;;;;;;;;;;5055256;28;20057;-68
2022/07/18 02:49:27;;;;;;;8.75;7.20;;;;;;;;;;5079602;28;20049;-68
2022/07/18 02:51:57;;;;;;;9.63;6.95;;;;;;;;;;5070881;28;20163;-68
2022/07/18 02:54:24;;;;;;;11.18;6.63;;;;;;;;;;5064843;28;20144;-69
2022/07/18 02:56:50;;;;;;;10.32;7.35;;;;;;;;;;5080165;28;20467;-68
2022/07/18 02:59:17;;;;;;;13.48;7.85;;;;;;;;;;5074257;28;20059;-68
2022/07/18 03:01:43;;;;;;;8.25;6.80;;;;;;;;;;5074521;28;20136;-68
2022/07/18 03:04:09;;;;;;;9.80;6.93;;;;;;;;;;5058455;28;20054;-68
2022/07/18 03:06:36;;;;;;;11.23;7.28;;;;;;;;;;5057131;28;20053;-68
2022/07/18 03:09:03;;;;;;;11.35;7.10;;;;;;;;;;5071777;28;20076;-69
2022/07/18 03:11:30;;;;;;;11.07;7.40;;;;;;;;;;5054069;28;20064;-69
2022/07/18 03:13:56;;;;;;;13.73;7.22;;;;;;;;;;5080594;28;20516;-68
2022/07/18 03:16:22;;;;;;;8.93;6.97;;;;;;;;;;5074418;28;20149;-68
2022/07/18 03:18:49;;;;;;;11.55;6.88;;;;;;;;;;5073469;28;20080;-68
2022/07/18 03:21:15;;;;;;;9.20;7.20;;;;;;;;;;5070844;28;22010;-68
2022/07/18 03:23:42;;;;;;;13.10;6.50;;;;;;;;;;5062028;28;20126;-68
2022/07/18 03:26:08;;;;;;;8.77;6.78;;;;;;;;;;5068314;28;20140;-68
2022/07/18 03:28:34;;;;;;;9.27;6.43;;;;;;;;;;5076936;28;20582;-67
2022/07/18 03:31:00;;;;;;;10.13;7.18;;;;;;;;;;5074069;28;20156;-67
2022/07/18 03:33:27;;;;;;;8.65;6.40;;;;;;;;;;5073602;28;20049;-67
2022/07/18 03:35:53;;;;;;;10.80;6.70;;;;;;;;;;5067850;28;20536;-68
2022/07/18 03:38:20;;;;;;;9.20;6.30;;;;;;;;;;5072192;28;20057;-68
2022/07/18 03:40:46;;;;;;;9.60;6.65;;;;;;;;;;5074205;28;20055;-67
2022/07/18 03:43:12;;;;;;;8.63;6.40;;;;;;;;;;5073326;28;20516;-68
2022/07/18 03:45:38;;;;;;;8.10;5.90;;;;;;;;;;5072655;28;20057;-68
2022/07/18 03:48:11;;;;;;;8.32;6.55;;;;;;;;;;5073679;28;20057;-69
2022/07/18 03:50:37;;;;;;;8.88;6.22;;;;;;;;;;5087803;28;20111;-67
2022/07/18 03:53:04;;;;;;;8.93;6.55;;;;;;;;;;5087716;28;20144;-67
2022/07/18 03:55:30;;;;;;;8.77;6.10;;;;;;;;;;5056429;28;20058;-67
2022/07/18 03:57:57;;;;;;;8.48;6.20;;;;;;;;;;5072143;28;20140;-68
2022/07/18 04:00:24;;;;;;;8.95;5.85;;;;;;;;;;5069045;28;20495;-68
2022/07/18 04:02:50;;;;;;;9.40;6.15;;;;;;;;;;5069855;28;20147;-68
2022/07/18 04:05:16;;;;;;;7.80;6.57;;;;;;;;;;5087764;28;20173;-69
2022/07/18 04:07:43;;;;;;;8.63;6.20;;;;;;;;;;5067307;28;20141;-69
2022/07/18 04:10:09;;;;;;;9.57;6.03;;;;;;;;;;5065447;28;20057;-68
2022/07/18 04:12:44;;;;;;;10.45;6.82;;;;;;;;;;5071649;28;20143;-68
2022/07/18 04:15:10;;;;;;;8.37;6.47;;;;;;;;;;5065321;28;20483;-68
2022/07/18 04:17:36;;;;;;;8.02;6.45;;;;;;;;;;5072695;28;20057;-68
2022/07/18 04:20:03;;;;;;;11.38;6.47;;;;;;;;;;5061668;28;20045;-74
2022/07/18 04:22:29;;;;;;;9.52;6.30;;;;;;;;;;5071473;28;20056;-75
2022/07/18 04:24:56;;;;;;;8.93;6.43;;;;;;;;;;5072095;28;20053;-76
2022/07/18 04:27:22;;;;;;;10.95;6.90;;;;;;;;;;5070057;28;20076;-75
2022/07/18 04:29:48;;;;;;;8.73;7.05;;;;;;;;;;5066841;28;20132;-75
2022/07/18 04:32:14;;;;;;;9.98;6.57;;;;;;;;;;5076981;28;20072;-75
2022/07/18 04:34:41;;;;;;;10.40;7.30;;;;;;;;;;5066964;28;20049;-75
2022/07/18 04:37:07;;;;;;;10.10;7.55;;;;;;;;;;5055753;28;20053;-74
2022/07/18 04:39:33;;;;;;;9.30;7.13;;;;;;;;;;5068039;28;20148;-75
2022/07/18 04:42:00;;;;;;;12.00;7.40;;;;;;;;;;5062980;28;20092;-74
2022/07/18 04:44:26;;;;;;;10.18;6.93;;;;;;;;;;5063128;28;20087;-74
2022/07/18 04:46:52;;;;;;;12.57;6.55;;;;;;;;;;5060464;28;20144;-76
2022/07/18 04:49:19;;;;;;;12.05;6.72;;;;;;;;;;5060669;28;20923;-74
2022/07/18 04:51:45;;;;;;;9.43;6.40;;;;;;;;;;5086417;28;20088;-76
2022/07/18 04:54:12;;;;;;;12.27;7.85;;;;;;;;;;5071145;28;20083;-75
2022/07/18 04:56:38;;;;;;;9.52;6.38;;;;;;;;;;5077101;28;20571;-76
2022/07/18 04:59:04;;;;;;;10.68;6.63;;;;;;;;;;5068601;28;20049;-75
2022/07/18 05:01:32;;;;;;;11.43;6.55;;;;;;;;;;5062734;28;20132;-75
2022/07/18 05:03:58;;;;;;;9.98;6.90;;;;;;;;;;5067523;28;20123;-76
2022/07/18 05:06:25;;;;;;;11.85;7.32;;;;;;;;;;5062770;28;20049;-77
2022/07/18 05:08:51;;;;;;;12.45;7.28;;;;;;;;;;5064090;28;20599;-76
2022/07/18 05:11:17;;;;;;;13.63;6.50;;;;;;;;;;5068351;28;20059;-75
2022/07/18 05:13:44;;;;;;;10.93;6.95;;;;;;;;;;5073210;28;20065;-76
2022/07/18 05:16:10;;;;;;;11.77;7.50;;;;;;;;;;5063905;28;20163;-76
2022/07/18 05:18:37;;;;;;;9.88;6.65;;;;;;;;;;5062413;28;20056;-75
2022/07/18 05:21:03;;;;;;;9.15;6.55;;;;;;;;;;5082089;28;20591;-76
2022/07/18 05:23:29;;;;;;;13.05;6.57;;;;;;;;;;5071116;28;20053;-77
2022/07/18 05:25:56;;;;;;;10.43;7.22;;;;;;;;;;5058547;28;20049;-77
2022/07/18 05:28:23;;;;;;;11.70;7.47;;;;;;;;;;5057029;28;20787;-76
2022/07/18 05:30:49;;;;;;;11.52;7.65;;;;;;;;;;5060376;28;20536;-76
2022/07/18 05:33:15;;;;;;;8.85;7.03;;;;;;;;;;5069797;28;20514;-76
2022/07/18 05:35:42;;;;;;;16.00;7.57;;;;;;;;;;5064738;28;20508;-76
2022/07/18 05:38:08;;;;;;;13.82;7.75;;;;;;;;;;5069032;28;20132;-75
2022/07/18 05:40:34;;;;;;;11.40;7.60;;;;;;;;;;5071420;28;20544;-76
2022/07/18 05:43:01;;;;;;;9.77;6.97;;;;;;;;;;5058408;28;20132;-75
2022/07/18 05:45:27;;;;;;;11.63;7.72;;;;;;;;;;5071891;28;20104;-75
2022/07/18 05:47:53;;;;;;;10.95;7.15;;;;;;;;;;5075519;28;20060;-75
2022/07/18 05:50:21;;;;;;;12.65;7.00;;;;;;;;;;5058927;28;20075;-73
2022/07/18 05:52:47;;;;;;;9.27;6.20;;;;;;;;;;5064430;28;20076;-70
2022/07/18 05:55:14;;;;;;;13.35;6.50;;;;;;;;;;5064613;28;20053;-70
2022/07/18 05:57:40;;;;;;;12.45;6.13;;;;;;;;;;5070642;28;20654;-70
2022/07/18 06:00:08;;;;;;;8.55;6.40;;;;;;;;;;5070086;28;20053;-69
2022/07/18 06:02:34;;;;;;;10.88;6.43;;;;;;;;;;5069804;28;20486;-72
2022/07/18 06:05:01;;;;;;;9.60;6.15;;;;;;;;;;5070769;28;20556;-72
2022/07/18 06:07:47;;;;;;;7.20;5.57;;;;;;;;;;5058044;28;20152;-74
2022/07/18 06:10:13;;;;;;;12.52;6.50;;;;;;;;;;5076591;28;20524;-75
2022/07/18 06:12:41;;;;;;;10.18;5.88;;;;;;;;;;5077406;28;20053;-74
2022/07/18 06:15:08;;;;;;;10.48;5.88;;;;;;;;;;5072696;28;20059;-74
2022/07/18 06:17:34;;;;;;;9.10;5.38;;;;;;;;;;5062028;28;20060;-76
2022/07/18 06:20:00;;;;;;;12.77;5.78;;;;;;;;;;5076171;28;20140;-75
2022/07/18 06:22:27;;;;;;;11.32;5.55;;;;;;;;;;5070508;28;20123;-75
2022/07/18 06:24:53;;;;;;;10.57;5.80;;;;;;;;;;5072672;28;20144;-74
2022/07/18 06:27:19;;;;;;;19.05;5.72;;;;;;;;;;5070086;28;20210;-76
2022/07/18 06:29:46;;;;;;;10.77;5.55;;;;;;;;;;5074079;28;20144;-73
2022/07/18 06:32:13;;;;;;;9.13;5.20;;;;;;;;;;5072293;28;20053;-78
2022/07/18 06:34:39;;;;;;;8.65;4.80;;;;;;;;;;5074715;28;20135;-76
2022/07/18 06:37:05;;;;;;;7.75;4.97;;;;;;;;;;5061356;28;20494;-72
2022/07/18 06:39:31;;;;;;;8.77;4.72;;;;;;;;;;5071999;28;20055;-75
2022/07/18 06:41:58;;;;;;;6.45;3.78;;;;;;;;;;5087624;28;20147;-76
2022/07/18 06:44:24;;;;;;;9.45;4.82;;;;;;;;;;5070628;28;20560;-72
2022/07/18 06:46:51;;;;;;;6.47;3.80;;;;;;;;;;5067723;28;20136;-72
2022/07/18 06:49:18;;;;;;;11.73;4.25;;;;;;;;;;5069592;28;20494;-73
2022/07/18 06:51:45;;;;;;;10.02;4.43;;;;;;;;;;5070231;28;20049;-72
2022/07/18 06:54:11;;;;;;;12.18;3.83;;;;;;;;;;5072328;28;20048;-73
2022/07/18 06:56:37;;;;;;;8.07;4.10;;;;;;;;;;5072641;28;20053;-76
2022/07/18 06:59:04;;;;;;;11.07;3.72;;;;;;;;;;5069285;28;20049;-74
2022/07/18 07:01:30;;;;;;;12.60;4.65;;;;;;;;;;5066983;28;20572;-73
2022/07/18 07:03:57;;;;;;;9.05;3.58;;;;;;;;;;5073091;28;20056;-71
2022/07/18 07:06:23;;;;;;;9.52;4.10;;;;;;;;;;5073611;28;20598;-72
2022/07/18 07:08:50;;;;;;;6.00;3.55;;;;;;;;;;5072525;28;20079;-71
2022/07/18 07:11:16;;;;;;;9.45;3.80;;;;;;;;;;5069864;28;20090;-71
2022/07/18 07:13:42;;;;;;;6.57;3.60;;;;;;;;;;5054348;28;20057;-76
2022/07/18 07:16:09;;;;;;;6.45;3.38;;;;;;;;;;5069669;28;20056;-76
2022/07/18 07:18:35;;;;;;;8.00;3.78;;;;;;;;;;5065985;28;20570;-70
2022/07/18 07:21:02;;;;;;;5.03;3.42;;;;;;;;;;5071963;28;20140;-70
2022/07/18 07:23:34;;;;;;;7.30;2.80;;;;;;;;;;5070316;28;20143;-69
2022/07/18 07:26:01;;;;;;;7.20;3.30;;;;;;;;;;5072229;28;20139;-73
2022/07/18 07:28:27;;;;;;;9.57;3.35;;;;;;;;;;5068869;28;20163;-72
2022/07/18 07:30:53;;;;;;;8.50;3.20;;;;;;;;;;5071514;28;20051;-74
2022/07/18 07:33:20;;;;;;;7.55;3.35;;;;;;;;;;5066949;28;20059;-74
2022/07/18 07:35:46;;;;;;;4.90;2.80;;;;;;;;;;5071942;28;20056;-75
2022/07/18 07:38:18;;;;;;;7.40;3.30;;;;;;;;;;5072699;28;20055;-77
2022/07/18 07:40:45;;;;;;;9.80;3.35;;;;;;;;;;5071397;28;20077;-65
2022/07/18 07:43:12;;;;;;;7.18;2.47;;;;;;;;;;5072747;28;20128;-67
2022/07/18 07:45:38;;;;;;;5.15;2.83;;;;;;;;;;5070364;28;20048;-65
2022/07/18 07:48:05;;;;;;;7.82;2.78;;;;;;;;;;5073402;28;20577;-67
2022/07/18 07:50:32;;;;;;;5.85;2.55;;;;;;;;;;5075054;28;21012;-66
2022/07/18 07:52:58;;;;;;;4.68;2.58;;;;;;;;;;5071371;28;20057;-67
2022/07/18 07:55:25;;;;;;;3.28;2.33;;;;;;;;;;5071267;28;20095;-67
2022/07/18 07:57:52;;;;;;;9.65;3.03;;;;;;;;;;5069437;28;20590;-66
2022/07/18 08:00:18;;;;;;;5.53;2.92;;;;;;;;;;5070577;28;20063;-66
2022/07/18 08:02:51;;;;;;;9.18;2.25;;;;;;;;;;5069579;28;20052;-66
2022/07/18 08:05:25;;;;;;;3.67;2.30;;;;;;;;;;5067803;28;20490;-64
2022/07/18 08:07:51;;;;;;;4.85;2.45;;;;;;;;;;5062646;28;20053;-65
2022/07/18 08:10:17;;;;;;;5.68;2.42;;;;;;;;;;5069898;28;20521;-65
2022/07/18 08:12:44;;;;;;;9.10;2.80;;;;;;;;;;5071598;28;20051;-65
2022/07/18 08:15:10;;;;;;;3.97;2.33;;;;;;;;;;5064588;28;20152;-64
2022/07/18 08:17:36;;;;;;;8.07;2.78;;;;;;;;;;5071897;28;20605;-65
2022/07/18 08:20:03;;;;;;;7.32;2.72;;;;;;;;;;5067647;28;20136;-63
2022/07/18 08:22:30;;;;;;;4.22;2.88;;;;;;;;;;5063430;28;20583;-69
2022/07/18 08:24:56;;;;;;;9.57;2.63;;;;;;;;;;5063863;28;20490;-68
2022/07/18 08:27:22;;;;;;;9.07;2.40;;;;;;;;;;5061476;28;20486;-67
2022/07/18 08:29:49;;;;;;;3.80;2.15;;;;;;;;;;5055851;28;20048;-67
2022/07/18 08:32:33;;;;;;;6.13;2.40;;;;;;;;;;5051574;28;20057;-67
2022/07/18 08:35:00;;;;;;;9.85;2.20;;;;;;;;;;5072350;28;20061;-66
2022/07/18 08:37:26;;;;;;;4.88;2.53;;;;;;;;;;5071218;28;20049;-66
2022/07/18 08:39:53;;;;;;;4.38;1.90;;;;;;;;;;5072090;28;20063;-68
2022/07/18 08:42:21;;;;;;;5.85;2.47;;;;;;;;;;5064825;28;20055;-68
2022/07/18 08:44:47;;;;;;;8.38;2.50;;;;;;;;;;5071457;28;20152;-66
2022/07/18 08:47:15;;;;;;;6.25;2.60;;;;;;;;;;5062602;28;20053;-67
2022/07/18 08:49:42;;;;;;;4.25;1.95;;;;;;;;;;5064016;28;20080;-66
2022/07/18 08:52:08;;;;;;;5.95;2.78;;;;;;;;;;5070845;28;20075;-69
2022/07/18 08:54:49;;;;;;;7.30;2.58;;;;;;;;;;5071233;28;21134;-69
2022/07/18 08:57:24;;;;;;;8.45;2.85;;;;;;;;;;5071290;28;20119;-67
2022/07/18 08:59:51;;;;;;;4.35;1.75;;;;;;;;;;5070094;28;20140;-68
2022/07/18 09:02:23;;;;;;;5.07;2.83;;;;;;;;;;5071511;28;20056;-67
2022/07/18 09:04:49;;;;;;;5.22;2.15;;;;;;;;;;5070643;28;20056;-68
2022/07/18 09:07:36;;;;;;;5.28;1.88;;;;;;;;;;5070946;28;20509;-69
2022/07/18 09:10:03;;;;;;;2.90;1.70;;;;;;;;;;5070760;28;20532;-68
2022/07/18 09:12:33;;;;;;;6.22;2.28;;;;;;;;;;5071223;28;20063;-66
2022/07/18 09:15:06;;;;;;;7.45;1.83;;;;;;;;;;5069567;28;20061;-67
2022/07/18 09:17:33;;;;;;;7.50;2.42;;;;;;;;;;5060215;28;20443;-66
2022/07/18 09:20:08;;;;;;;12.32;2.13;;;;;;;;;;5070871;28;20056;-67
2022/07/18 09:22:41;;;;;;;5.28;2.53;;;;;;;;;;5061144;28;20053;-67
2022/07/18 09:25:11;;;;;;;4.25;1.80;;;;;;;;;;5070678;28;20053;-67
2022/07/18 09:27:39;;;;;;;10.40;2.20;;;;;;;;;;5070428;28;20053;-69
2022/07/18 09:30:11;;;;;;;4.45;2.33;;;;;;;;;;5086160;27;20049;-66
2022/07/18 09:32:39;;;;;;;4.05;2.30;;;;;;;;;;5068181;28;20049;-66
2022/07/18 09:35:06;;;;;;;6.22;2.22;;;;;;;;;;5060884;28;20137;-67
2022/07/18 09:37:32;;;;;;;7.82;2.05;;;;;;;;;;5075014;28;20075;-67
2022/07/18 09:40:14;;;;;;;4.55;2.08;;;;;;;;;;5079441;28;20072;-64
2022/07/18 09:42:50;;;;;;;7.50;2.22;;;;;;;;;;5062729;28;20106;-65
2022/07/18 09:45:28;;;;;;;4.60;2.20;;;;;;;;;;5074022;28;20049;-67
2022/07/18 09:47:56;;;;;;;7.80;2.42;;;;;;;;;;5075349;28;20063;-66
2022/07/18 09:50:30;;;;;;;3.03;1.73;;;;;;;;;;5063824;28;20085;-66
2022/07/18 09:53:01;;;;;;;4.60;2.23;;;;;;;;;;5074199;28;20136;-66
2022/07/18 09:55:49;;;;;;;5.78;2.17;;;;;;;;;;5073390;28;20478;-67
2022/07/18 09:58:17;;;;;;;5.53;2.13;;;;;;;;;;5073104;28;20048;-68
2022/07/18 10:00:43;;;;;;;6.00;2.15;;;;;;;;;;5058292;28;20549;-68
2022/07/18 10:03:10;;;;;;;6.25;2.10;;;;;;;;;;5074600;28;20060;-68
2022/07/18 10:05:38;;;;;;;6.35;1.90;;;;;;;;;;5073514;28;20134;-67
2022/07/18 10:08:06;;;;;;;5.30;2.47;;;;;;;;;;5072664;28;20063;-66
2022/07/18 10:10:33;;;;;;;9.10;2.22;;;;;;;;;;5057808;28;20490;-66
2022/07/18 10:13:00;;;;;;;4.20;1.70;;;;;;;;;;5073481;28;20172;-69
2022/07/18 10:15:28;;;;;;;8.40;2.45;;;;;;;;;;5056777;28;20046;-67
2022/07/18 10:17:55;;;;;;;8.73;2.40;;;;;;;;;;5053658;28;20060;-67
2022/07/18 10:20:26;;;;;;;5.43;2.30;;;;;;;;;;5064436;28;20490;-68
2022/07/18 10:22:57;;;;;;;7.25;2.17;;;;;;;;;;5073058;28;20517;-69
2022/07/18 10:25:23;;;;;;;8.18;2.33;;;;;;;;;;5073359;28;20072;-67
2022/07/18 10:27:51;;;;;;;5.18;2.08;;;;;;;;;;5060338;28;20053;-67
2022/07/18 10:30:28;;;;;;;6.28;2.08;;;;;;;;;;5072616;28;20052;-66
2022/07/18 10:32:54;;;;;;;4.40;1.98;;;;;;;;;;5061307;28;20176;-65
2022/07/18 10:35:40;;;;;;;10.52;2.55;;;;;;;;;;5069201;28;20053;-67
2022/07/18 10:38:19;;;;;;;5.90;2.05;;;;;;;;;;5067390;28;20083;-66
2022/07/18 10:41:02;;;;;;;3.85;1.98;;;;;;;;;;5073211;28;20136;-67
2022/07/18 10:43:31;;;;;;;4.07;1.90;;;;;;;;;;5089708;28;20057;-67
2022/07/18 10:46:01;;;;;;;4.95;1.70;;;;;;;;;;5080808;28;20064;-63
2022/07/18 10:48:33;;;;;;;4.75;2.22;;;;;;;;;;5071717;28;20056;-68
2022/07/18 10:51:00;;;;;;;5.93;2.40;;;;;;;;;;5064365;28;20386;-66
2022/07/18 10:53:45;;;;;;;5.18;2.08;;;;;;;;;;5067540;28;20049;-64
2022/07/18 10:56:12;;;;;;;6.07;2.22;;;;;;;;;;5073159;28;20474;-65
2022/07/18 10:58:38;;;;;;;5.82;2.28;;;;;;;;;;5081857;28;20056;-64
2022/07/18 11:01:08;;;;;;;5.45;1.98;;;;;;;;;;5072893;28;20509;-65
2022/07/18 11:03:35;;;;;;;4.72;1.58;;;;;;;;;;5072675;28;20866;-65
2022/07/18 11:06:01;;;;;;;2.50;1.88;;;;;;;;;;5087555;28;20052;-65
2022/07/18 11:08:30;;;;;;;4.97;2.17;;;;;;;;;;5076437;28;20049;-65
2022/07/18 11:11:03;;;;;;;4.55;2.00;;;;;;;;;;5078694;28;20140;-66
2022/07/18 11:13:37;;;;;;;5.38;1.98;;;;;;;;;;5072245;28;20068;-66
2022/07/18 11:16:05;;;;;;;7.15;2.08;;;;;;;;;;5085391;28;20054;-65
